sensor_id;sensor_type;location;lat;lon;timestamp;P1;durP1;ratioP1;P2;durP2;ratioP2
13999;SDS011;7075;53.574;10.054;2023-05-10T00:00:52;4.97;;;2.87;;
13999;SDS011;7075;53.574;10.054;2023-05-10T00:03:17;3.23;;;2.20;;
13999;SDS011;7075;53.574;10.054;2023-05-10T00:05:43;4.00;;;2.40;;
13999;SDS011;7075;53.574;10.054;2023-05-10T00:08:09;4.93;;;2.30;;
13999;SDS011;7075;53.574;10.054;2023-05-10T00:10:35;6.43;;;3.13;;
13999;SDS011;7075;53.574;10.054;2023-05-10T00:13:02;4.00;;;2.37;;
13999;SDS011;7075;53.574;10.054;2023-05-10T00:15:28;6.23;;;2.97;;
13999;SDS011;7075;53.574;10.054;2023-05-10T00:17:55;6.83;;;2.80;;
13999;SDS011;7075;53.574;10.054;2023-05-10T00:20:21;3.03;;;2.60;;
13999;SDS011;7075;53.574;10.054;2023-05-10T00:22:47;7.60;;;2.80;;
13999;SDS011;7075;53.574;10.054;2023-05-10T00:25:13;7.77;;;2.97;;
13999;SDS011;7075;53.574;10.054;2023-05-10T00:27:39;4.23;;;2.40;;
13999;SDS011;7075;53.574;10.054;2023-05-10T00:30:04;3.53;;;2.20;;
13999;SDS011;7075;53.574;10.054;2023-05-10T00:32:31;8.47;;;3.53;;
13999;SDS011;7075;53.574;10.054;2023-05-10T00:34:57;7.37;;;3.00;;
13999;SDS011;7075;53.574;10.054;2023-05-10T00:37:23;7.10;;;2.87;;
13999;SDS011;7075;53.574;10.054;2023-05-10T00:39:48;5.73;;;2.87;;
13999;SDS011;7075;53.574;10.054;2023-05-10T00:42:14;4.90;;;2.70;;
13999;SDS011;7075;53.574;10.054;2023-05-10T00:44:39;5.37;;;2.77;;
13999;SDS011;7075;53.574;10.054;2023-05-10T00:47:05;3.63;;;2.50;;
13999;SDS011;7075;53.574;10.054;2023-05-10T00:49:30;4.97;;;3.07;;
13999;SDS011;7075;53.574;10.054;2023-05-10T00:51:56;6.27;;;2.70;;
13999;SDS011;7075;53.574;10.054;2023-05-10T00:54:22;3.63;;;2.83;;
13999;SDS011;7075;53.574;10.054;2023-05-10T00:56:47;5.90;;;2.60;;
13999;SDS011;7075;53.574;10.054;2023-05-10T00:59:17;3.20;;;2.37;;
13999;SDS011;7075;53.574;10.054;2023-05-10T01:01:44;3.27;;;2.77;;
13999;SDS011;7075;53.574;10.054;2023-05-10T01:04:11;2.80;;;2.50;;
13999;SDS011;7075;53.574;10.054;2023-05-10T01:06:41;4.40;;;2.50;;
13999;SDS011;7075;53.574;10.054;2023-05-10T01:09:07;4.37;;;3.10;;
13999;SDS011;7075;53.574;10.054;2023-05-10T01:11:33;5.87;;;2.77;;
13999;SDS011;7075;53.574;10.054;2023-05-10T01:14:00;4.13;;;2.90;;
13999;SDS011;7075;53.574;10.054;2023-05-10T01:16:27;5.97;;;3.10;;
13999;SDS011;7075;53.574;10.054;2023-05-10T01:18:54;4.30;;;2.73;;
13999;SDS011;7075;53.574;10.054;2023-05-10T01:32:34;4.10;;;3.13;;
13999;SDS011;7075;53.574;10.054;2023-05-10T01:37:46;6.03;;;3.20;;
13999;SDS011;7075;53.574;10.054;2023-05-10T01:40:19;4.53;;;2.53;;
13999;SDS011;7075;53.574;10.054;2023-05-10T01:42:51;7.80;;;2.80;;
13999;SDS011;7075;53.574;10.054;2023-05-10T01:45:32;5.53;;;2.60;;
13999;SDS011;7075;53.574;10.054;2023-05-10T01:48:08;5.70;;;2.50;;
13999;SDS011;7075;53.574;10.054;2023-05-10T01:50:36;4.57;;;2.93;;
13999;SDS011;7075;53.574;10.054;2023-05-10T01:53:03;5.77;;;2.57;;
13999;SDS011;7075;53.574;10.054;2023-05-10T01:55:32;3.70;;;2.53;;
13999;SDS011;7075;53.574;10.054;2023-05-10T01:58:11;3.90;;;2.87;;
13999;SDS011;7075;53.574;10.054;2023-05-10T02:00:40;3.47;;;2.70;;
13999;SDS011;7075;53.574;10.054;2023-05-10T02:03:09;3.63;;;2.63;;
13999;SDS011;7075;53.574;10.054;2023-05-10T02:05:36;4.93;;;2.77;;
13999;SDS011;7075;53.574;10.054;2023-05-10T02:08:05;5.83;;;3.30;;
13999;SDS011;7075;53.574;10.054;2023-05-10T02:10:32;3.70;;;3.00;;
13999;SDS011;7075;53.574;10.054;2023-05-10T02:12:59;7.93;;;3.03;;
13999;SDS011;7075;53.574;10.054;2023-05-10T02:15:25;3.33;;;2.50;;
13999;SDS011;7075;53.574;10.054;2023-05-10T02:17:52;3.07;;;2.57;;
13999;SDS011;7075;53.574;10.054;2023-05-10T02:20:20;5.03;;;2.83;;
13999;SDS011;7075;53.574;10.054;2023-05-10T02:22:49;5.47;;;3.07;;
13999;SDS011;7075;53.574;10.054;2023-05-10T02:25:17;5.40;;;3.07;;
13999;SDS011;7075;53.574;10.054;2023-05-10T02:27:46;4.80;;;2.73;;
13999;SDS011;7075;53.574;10.054;2023-05-10T02:30:13;9.33;;;2.90;;
13999;SDS011;7075;53.574;10.054;2023-05-10T02:32:39;4.50;;;2.90;;
13999;SDS011;7075;53.574;10.054;2023-05-10T02:35:06;6.37;;;2.93;;
13999;SDS011;7075;53.574;10.054;2023-05-10T02:37:33;4.77;;;3.07;;
13999;SDS011;7075;53.574;10.054;2023-05-10T02:40:00;9.43;;;3.27;;
13999;SDS011;7075;53.574;10.054;2023-05-10T02:42:28;6.23;;;3.53;;
13999;SDS011;7075;53.574;10.054;2023-05-10T02:44:59;5.80;;;3.40;;
13999;SDS011;7075;53.574;10.054;2023-05-10T02:47:26;7.20;;;2.97;;
13999;SDS011;7075;53.574;10.054;2023-05-10T02:49:52;4.50;;;3.00;;
13999;SDS011;7075;53.574;10.054;2023-05-10T02:52:23;4.17;;;2.93;;
13999;SDS011;7075;53.574;10.054;2023-05-10T02:54:54;5.67;;;3.13;;
13999;SDS011;7075;53.574;10.054;2023-05-10T02:57:25;3.27;;;2.70;;
13999;SDS011;7075;53.574;10.054;2023-05-10T02:59:54;5.43;;;3.03;;
13999;SDS011;7075;53.574;10.054;2023-05-10T03:02:20;3.63;;;3.03;;
13999;SDS011;7075;53.574;10.054;2023-05-10T03:04:46;5.67;;;2.70;;
13999;SDS011;7075;53.574;10.054;2023-05-10T03:07:11;7.23;;;2.80;;
13999;SDS011;7075;53.574;10.054;2023-05-10T03:13:07;3.70;;;2.83;;
13999;SDS011;7075;53.574;10.054;2023-05-10T03:21:17;6.07;;;2.60;;
13999;SDS011;7075;53.574;10.054;2023-05-10T03:23:55;3.77;;;2.73;;
13999;SDS011;7075;53.574;10.054;2023-05-10T03:26:26;6.30;;;3.20;;
13999;SDS011;7075;53.574;10.054;2023-05-10T03:28:52;6.80;;;3.23;;
13999;SDS011;7075;53.574;10.054;2023-05-10T03:31:18;5.87;;;3.17;;
13999;SDS011;7075;53.574;10.054;2023-05-10T03:33:48;3.30;;;3.00;;
13999;SDS011;7075;53.574;10.054;2023-05-10T03:36:14;6.53;;;3.13;;
13999;SDS011;7075;53.574;10.054;2023-05-10T03:38:40;4.00;;;2.87;;
13999;SDS011;7075;53.574;10.054;2023-05-10T03:41:05;5.50;;;3.20;;
13999;SDS011;7075;53.574;10.054;2023-05-10T03:43:31;5.07;;;3.53;;
13999;SDS011;7075;53.574;10.054;2023-05-10T03:45:56;3.90;;;3.03;;
13999;SDS011;7075;53.574;10.054;2023-05-10T03:48:22;3.80;;;3.03;;
13999;SDS011;7075;53.574;10.054;2023-05-10T03:50:47;6.53;;;3.40;;
13999;SDS011;7075;53.574;10.054;2023-05-10T03:53:14;4.50;;;3.33;;
13999;SDS011;7075;53.574;10.054;2023-05-10T03:55:40;6.77;;;3.83;;
13999;SDS011;7075;53.574;10.054;2023-05-10T03:58:06;5.30;;;3.13;;
13999;SDS011;7075;53.574;10.054;2023-05-10T04:00:31;3.20;;;2.90;;
13999;SDS011;7075;53.574;10.054;2023-05-10T04:02:57;6.17;;;3.20;;
13999;SDS011;7075;53.574;10.054;2023-05-10T04:05:23;6.87;;;3.13;;
13999;SDS011;7075;53.574;10.054;2023-05-10T04:07:49;6.30;;;3.47;;
13999;SDS011;7075;53.574;10.054;2023-05-10T04:10:15;4.20;;;2.87;;
13999;SDS011;7075;53.574;10.054;2023-05-10T04:12:41;9.23;;;2.60;;
13999;SDS011;7075;53.574;10.054;2023-05-10T04:15:07;3.73;;;3.00;;
13999;SDS011;7075;53.574;10.054;2023-05-10T04:17:33;5.23;;;3.03;;
13999;SDS011;7075;53.574;10.054;2023-05-10T04:19:58;5.30;;;3.83;;
13999;SDS011;7075;53.574;10.054;2023-05-10T04:22:24;5.60;;;3.00;;
13999;SDS011;7075;53.574;10.054;2023-05-10T04:24:50;5.57;;;3.33;;
13999;SDS011;7075;53.574;10.054;2023-05-10T04:27:15;7.17;;;3.07;;
13999;SDS011;7075;53.574;10.054;2023-05-10T04:29:41;6.53;;;3.53;;
13999;SDS011;7075;53.574;10.054;2023-05-10T04:32:06;3.67;;;3.23;;
13999;SDS011;7075;53.574;10.054;2023-05-10T04:34:32;3.30;;;2.93;;
13999;SDS011;7075;53.574;10.054;2023-05-10T04:36:59;3.63;;;2.90;;
13999;SDS011;7075;53.574;10.054;2023-05-10T04:39:24;3.90;;;3.27;;
13999;SDS011;7075;53.574;10.054;2023-05-10T04:41:50;3.70;;;3.20;;
13999;SDS011;7075;53.574;10.054;2023-05-10T04:44:15;5.93;;;3.10;;
13999;SDS011;7075;53.574;10.054;2023-05-10T04:46:41;5.83;;;3.00;;
13999;SDS011;7075;53.574;10.054;2023-05-10T04:49:07;5.97;;;3.77;;
13999;SDS011;7075;53.574;10.054;2023-05-10T04:51:32;6.53;;;2.97;;
13999;SDS011;7075;53.574;10.054;2023-05-10T04:53:58;5.50;;;3.60;;
13999;SDS011;7075;53.574;10.054;2023-05-10T04:56:23;6.13;;;3.40;;
13999;SDS011;7075;53.574;10.054;2023-05-10T04:58:49;6.20;;;2.73;;
13999;SDS011;7075;53.574;10.054;2023-05-10T05:01:14;4.77;;;2.93;;
13999;SDS011;7075;53.574;10.054;2023-05-10T05:03:40;4.33;;;3.43;;
13999;SDS011;7075;53.574;10.054;2023-05-10T05:06:06;6.40;;;3.33;;
13999;SDS011;7075;53.574;10.054;2023-05-10T05:08:32;4.27;;;2.90;;
13999;SDS011;7075;53.574;10.054;2023-05-10T05:10:57;3.83;;;3.13;;
13999;SDS011;7075;53.574;10.054;2023-05-10T05:13:24;7.20;;;3.60;;
13999;SDS011;7075;53.574;10.054;2023-05-10T05:15:49;7.10;;;3.20;;
13999;SDS011;7075;53.574;10.054;2023-05-10T05:18:15;4.43;;;3.30;;
13999;SDS011;7075;53.574;10.054;2023-05-10T05:20:40;3.83;;;2.77;;
13999;SDS011;7075;53.574;10.054;2023-05-10T05:23:06;4.10;;;3.20;;
13999;SDS011;7075;53.574;10.054;2023-05-10T05:25:31;4.50;;;3.47;;
13999;SDS011;7075;53.574;10.054;2023-05-10T05:27:57;5.97;;;2.90;;
13999;SDS011;7075;53.574;10.054;2023-05-10T05:30:23;4.90;;;3.03;;
13999;SDS011;7075;53.574;10.054;2023-05-10T05:32:48;3.50;;;3.00;;
13999;SDS011;7075;53.574;10.054;2023-05-10T05:35:14;4.13;;;2.97;;
13999;SDS011;7075;53.574;10.054;2023-05-10T05:37:39;6.50;;;3.47;;
13999;SDS011;7075;53.574;10.054;2023-05-10T05:40:05;4.20;;;3.37;;
13999;SDS011;7075;53.574;10.054;2023-05-10T05:42:31;6.87;;;3.40;;
13999;SDS011;7075;53.574;10.054;2023-05-10T05:44:57;5.43;;;3.70;;
13999;SDS011;7075;53.574;10.054;2023-05-10T05:47:22;6.53;;;3.03;;
13999;SDS011;7075;53.574;10.054;2023-05-10T05:49:48;6.33;;;3.23;;
13999;SDS011;7075;53.574;10.054;2023-05-10T05:52:14;5.23;;;3.60;;
13999;SDS011;7075;53.574;10.054;2023-05-10T05:54:39;7.27;;;2.87;;
13999;SDS011;7075;53.574;10.054;2023-05-10T05:57:05;18.03;;;4.77;;
13999;SDS011;7075;53.574;10.054;2023-05-10T05:59:30;9.83;;;3.07;;
13999;SDS011;7075;53.574;10.054;2023-05-10T06:01:56;7.70;;;3.30;;
13999;SDS011;7075;53.574;10.054;2023-05-10T06:04:21;6.13;;;3.10;;
13999;SDS011;7075;53.574;10.054;2023-05-10T06:06:47;3.37;;;3.00;;
13999;SDS011;7075;53.574;10.054;2023-05-10T06:09:13;6.63;;;3.77;;
13999;SDS011;7075;53.574;10.054;2023-05-10T06:11:39;5.83;;;3.30;;
13999;SDS011;7075;53.574;10.054;2023-05-10T06:14:04;3.47;;;2.90;;
13999;SDS011;7075;53.574;10.054;2023-05-10T06:16:31;5.57;;;3.13;;
13999;SDS011;7075;53.574;10.054;2023-05-10T06:18:57;4.53;;;3.30;;
13999;SDS011;7075;53.574;10.054;2023-05-10T06:21:23;3.77;;;3.20;;
13999;SDS011;7075;53.574;10.054;2023-05-10T06:23:48;6.87;;;2.87;;
13999;SDS011;7075;53.574;10.054;2023-05-10T06:26:14;3.50;;;3.20;;
13999;SDS011;7075;53.574;10.054;2023-05-10T06:28:40;4.70;;;2.93;;
13999;SDS011;7075;53.574;10.054;2023-05-10T06:31:05;9.13;;;3.27;;
13999;SDS011;7075;53.574;10.054;2023-05-10T06:33:31;4.93;;;3.57;;
13999;SDS011;7075;53.574;10.054;2023-05-10T06:35:57;8.30;;;3.40;;
13999;SDS011;7075;53.574;10.054;2023-05-10T06:38:23;3.43;;;2.83;;
13999;SDS011;7075;53.574;10.054;2023-05-10T06:40:49;4.07;;;3.13;;
13999;SDS011;7075;53.574;10.054;2023-05-10T06:43:14;6.60;;;3.40;;
13999;SDS011;7075;53.574;10.054;2023-05-10T06:45:40;6.17;;;3.20;;
13999;SDS011;7075;53.574;10.054;2023-05-10T06:48:06;7.20;;;2.70;;
13999;SDS011;7075;53.574;10.054;2023-05-10T06:50:32;3.40;;;2.70;;
13999;SDS011;7075;53.574;10.054;2023-05-10T06:52:58;5.53;;;3.60;;
13999;SDS011;7075;53.574;10.054;2023-05-10T06:55:24;9.33;;;3.70;;
13999;SDS011;7075;53.574;10.054;2023-05-10T06:57:49;6.60;;;3.80;;
13999;SDS011;7075;53.574;10.054;2023-05-10T07:00:15;3.93;;;2.93;;
13999;SDS011;7075;53.574;10.054;2023-05-10T07:02:41;6.33;;;3.30;;
13999;SDS011;7075;53.574;10.054;2023-05-10T07:05:07;7.37;;;3.60;;
13999;SDS011;7075;53.574;10.054;2023-05-10T07:07:33;6.60;;;3.47;;
13999;SDS011;7075;53.574;10.054;2023-05-10T07:09:59;5.33;;;3.53;;
13999;SDS011;7075;53.574;10.054;2023-05-10T07:12:25;12.90;;;3.40;;
13999;SDS011;7075;53.574;10.054;2023-05-10T07:14:51;5.53;;;3.43;;
13999;SDS011;7075;53.574;10.054;2023-05-10T07:17:17;5.53;;;3.33;;
13999;SDS011;7075;53.574;10.054;2023-05-10T07:19:43;5.77;;;3.60;;
13999;SDS011;7075;53.574;10.054;2023-05-10T07:22:09;5.33;;;3.50;;
13999;SDS011;7075;53.574;10.054;2023-05-10T07:24:35;5.33;;;3.33;;
13999;SDS011;7075;53.574;10.054;2023-05-10T07:27:01;4.80;;;3.10;;
13999;SDS011;7075;53.574;10.054;2023-05-10T07:29:27;4.00;;;2.83;;
13999;SDS011;7075;53.574;10.054;2023-05-10T07:31:53;3.57;;;3.27;;
13999;SDS011;7075;53.574;10.054;2023-05-10T07:34:19;10.10;;;3.70;;
13999;SDS011;7075;53.574;10.054;2023-05-10T07:36:44;4.30;;;3.50;;
13999;SDS011;7075;53.574;10.054;2023-05-10T07:39:10;4.87;;;3.60;;
13999;SDS011;7075;53.574;10.054;2023-05-10T07:41:35;7.87;;;3.60;;
13999;SDS011;7075;53.574;10.054;2023-05-10T07:44:02;6.03;;;3.20;;
13999;SDS011;7075;53.574;10.054;2023-05-10T07:46:28;3.73;;;3.30;;
13999;SDS011;7075;53.574;10.054;2023-05-10T07:48:54;5.23;;;3.17;;
13999;SDS011;7075;53.574;10.054;2023-05-10T07:51:20;5.50;;;3.47;;
13999;SDS011;7075;53.574;10.054;2023-05-10T07:53:46;5.30;;;3.27;;
13999;SDS011;7075;53.574;10.054;2023-05-10T07:56:21;4.93;;;3.30;;
13999;SDS011;7075;53.574;10.054;2023-05-10T07:58:57;3.40;;;3.10;;
13999;SDS011;7075;53.574;10.054;2023-05-10T08:01:23;5.47;;;3.50;;
13999;SDS011;7075;53.574;10.054;2023-05-10T08:03:49;8.03;;;3.77;;
13999;SDS011;7075;53.574;10.054;2023-05-10T08:06:17;4.83;;;3.30;;
13999;SDS011;7075;53.574;10.054;2023-05-10T08:08:43;5.70;;;3.53;;
13999;SDS011;7075;53.574;10.054;2023-05-10T08:11:13;11.03;;;3.33;;
13999;SDS011;7075;53.574;10.054;2023-05-10T08:13:40;9.87;;;3.97;;
13999;SDS011;7075;53.574;10.054;2023-05-10T08:16:05;4.00;;;2.97;;
13999;SDS011;7075;53.574;10.054;2023-05-10T08:18:32;6.93;;;3.27;;
13999;SDS011;7075;53.574;10.054;2023-05-10T08:21:00;5.30;;;3.60;;
13999;SDS011;7075;53.574;10.054;2023-05-10T08:23:26;7.67;;;3.20;;
13999;SDS011;7075;53.574;10.054;2023-05-10T08:25:51;8.10;;;4.10;;
13999;SDS011;7075;53.574;10.054;2023-05-10T08:28:17;5.30;;;3.53;;
13999;SDS011;7075;53.574;10.054;2023-05-10T08:30:42;5.23;;;3.60;;
13999;SDS011;7075;53.574;10.054;2023-05-10T08:33:08;6.03;;;3.60;;
13999;SDS011;7075;53.574;10.054;2023-05-10T08:35:34;3.97;;;3.27;;
13999;SDS011;7075;53.574;10.054;2023-05-10T08:38:00;4.33;;;2.90;;
13999;SDS011;7075;53.574;10.054;2023-05-10T08:40:26;3.63;;;3.30;;
13999;SDS011;7075;53.574;10.054;2023-05-10T08:45:47;5.03;;;3.57;;
13999;SDS011;7075;53.574;10.054;2023-05-10T08:48:15;4.67;;;2.73;;
13999;SDS011;7075;53.574;10.054;2023-05-10T08:50:41;6.37;;;3.37;;
13999;SDS011;7075;53.574;10.054;2023-05-10T08:53:09;4.47;;;3.00;;
13999;SDS011;7075;53.574;10.054;2023-05-10T08:55:36;6.03;;;3.63;;
13999;SDS011;7075;53.574;10.054;2023-05-10T08:58:06;7.10;;;3.73;;
13999;SDS011;7075;53.574;10.054;2023-05-10T09:00:32;4.57;;;2.97;;
13999;SDS011;7075;53.574;10.054;2023-05-10T09:02:59;5.57;;;2.90;;
13999;SDS011;7075;53.574;10.054;2023-05-10T09:05:25;5.47;;;2.43;;
13999;SDS011;7075;53.574;10.054;2023-05-10T09:07:51;14.00;;;3.33;;
13999;SDS011;7075;53.574;10.054;2023-05-10T09:10:17;5.53;;;3.70;;
13999;SDS011;7075;53.574;10.054;2023-05-10T09:12:44;11.93;;;3.87;;
13999;SDS011;7075;53.574;10.054;2023-05-10T09:15:10;4.80;;;3.50;;
13999;SDS011;7075;53.574;10.054;2023-05-10T09:17:37;3.53;;;2.40;;
13999;SDS011;7075;53.574;10.054;2023-05-10T09:20:05;5.77;;;3.53;;
13999;SDS011;7075;53.574;10.054;2023-05-10T09:22:31;6.17;;;4.20;;
13999;SDS011;7075;53.574;10.054;2023-05-10T09:25:03;4.30;;;3.90;;
13999;SDS011;7075;53.574;10.054;2023-05-10T09:27:34;6.90;;;4.10;;
13999;SDS011;7075;53.574;10.054;2023-05-10T09:30:00;4.97;;;3.30;;
13999;SDS011;7075;53.574;10.054;2023-05-10T09:32:42;3.57;;;3.00;;
13999;SDS011;7075;53.574;10.054;2023-05-10T09:35:13;8.03;;;3.97;;
13999;SDS011;7075;53.574;10.054;2023-05-10T09:37:40;10.00;;;4.07;;
13999;SDS011;7075;53.574;10.054;2023-05-10T09:40:11;12.10;;;4.17;;
13999;SDS011;7075;53.574;10.054;2023-05-10T09:42:38;4.97;;;3.83;;
13999;SDS011;7075;53.574;10.054;2023-05-10T09:45:06;6.80;;;4.00;;
13999;SDS011;7075;53.574;10.054;2023-05-10T09:47:32;9.57;;;4.27;;
13999;SDS011;7075;53.574;10.054;2023-05-10T09:49:59;9.00;;;4.50;;
13999;SDS011;7075;53.574;10.054;2023-05-10T09:53:14;5.63;;;3.63;;
13999;SDS011;7075;53.574;10.054;2023-05-10T09:55:16;7.13;;;4.57;;
13999;SDS011;7075;53.574;10.054;2023-05-10T09:57:47;6.93;;;4.20;;
13999;SDS011;7075;53.574;10.054;2023-05-10T10:00:17;6.87;;;4.80;;
13999;SDS011;7075;53.574;10.054;2023-05-10T10:02:48;11.37;;;5.93;;
13999;SDS011;7075;53.574;10.054;2023-05-10T10:05:20;9.60;;;5.00;;
13999;SDS011;7075;53.574;10.054;2023-05-10T10:07:45;6.77;;;4.33;;
13999;SDS011;7075;53.574;10.054;2023-05-10T10:10:12;9.10;;;5.00;;
13999;SDS011;7075;53.574;10.054;2023-05-10T10:12:41;6.40;;;4.93;;
13999;SDS011;7075;53.574;10.054;2023-05-10T10:15:07;6.00;;;4.73;;
13999;SDS011;7075;53.574;10.054;2023-05-10T10:17:35;6.07;;;5.47;;
13999;SDS011;7075;53.574;10.054;2023-05-10T10:20:03;8.87;;;5.30;;
13999;SDS011;7075;53.574;10.054;2023-05-10T10:22:29;7.50;;;5.77;;
13999;SDS011;7075;53.574;10.054;2023-05-10T10:24:55;8.80;;;5.07;;
13999;SDS011;7075;53.574;10.054;2023-05-10T10:27:26;8.80;;;5.73;;
13999;SDS011;7075;53.574;10.054;2023-05-10T10:30:06;8.57;;;6.40;;
13999;SDS011;7075;53.574;10.054;2023-05-10T10:33:01;7.87;;;6.20;;
13999;SDS011;7075;53.574;10.054;2023-05-10T10:35:50;10.37;;;6.57;;
13999;SDS011;7075;53.574;10.054;2023-05-10T10:38:18;9.83;;;6.47;;
13999;SDS011;7075;53.574;10.054;2023-05-10T10:40:44;8.10;;;6.63;;
13999;SDS011;7075;53.574;10.054;2023-05-10T10:43:22;8.33;;;7.03;;
13999;SDS011;7075;53.574;10.054;2023-05-10T10:46:12;8.93;;;6.53;;
13999;SDS011;7075;53.574;10.054;2023-05-10T10:49:24;8.60;;;6.40;;
13999;SDS011;7075;53.574;10.054;2023-05-10T10:51:38;7.57;;;6.87;;
13999;SDS011;7075;53.574;10.054;2023-05-10T10:54:10;7.50;;;6.03;;
13999;SDS011;7075;53.574;10.054;2023-05-10T10:56:36;8.57;;;6.83;;
13999;SDS011;7075;53.574;10.054;2023-05-10T10:59:02;9.10;;;6.70;;
13999;SDS011;7075;53.574;10.054;2023-05-10T11:01:32;10.30;;;6.53;;
13999;SDS011;7075;53.574;10.054;2023-05-10T11:06:35;9.67;;;6.47;;
13999;SDS011;7075;53.574;10.054;2023-05-10T11:09:07;13.03;;;6.10;;
13999;SDS011;7075;53.574;10.054;2023-05-10T11:11:34;8.60;;;6.67;;
13999;SDS011;7075;53.574;10.054;2023-05-10T11:14:04;7.83;;;6.20;;
13999;SDS011;7075;53.574;10.054;2023-05-10T11:16:40;10.07;;;6.40;;
13999;SDS011;7075;53.574;10.054;2023-05-10T11:19:11;10.90;;;6.83;;
13999;SDS011;7075;53.574;10.054;2023-05-10T11:24:15;7.33;;;6.17;;
13999;SDS011;7075;53.574;10.054;2023-05-10T11:26:43;6.73;;;5.87;;
13999;SDS011;7075;53.574;10.054;2023-05-10T11:29:09;9.47;;;6.80;;
13999;SDS011;7075;53.574;10.054;2023-05-10T11:31:35;9.23;;;6.53;;
13999;SDS011;7075;53.574;10.054;2023-05-10T11:34:06;13.23;;;6.13;;
13999;SDS011;7075;53.574;10.054;2023-05-10T11:36:32;6.53;;;5.70;;
13999;SDS011;7075;53.574;10.054;2023-05-10T11:38:59;6.80;;;6.03;;
13999;SDS011;7075;53.574;10.054;2023-05-10T11:41:26;9.13;;;7.07;;
13999;SDS011;7075;53.574;10.054;2023-05-10T11:43:53;9.77;;;6.23;;
13999;SDS011;7075;53.574;10.054;2023-05-10T11:46:20;10.13;;;6.77;;
13999;SDS011;7075;53.574;10.054;2023-05-10T11:48:51;9.13;;;6.90;;
13999;SDS011;7075;53.574;10.054;2023-05-10T11:51:21;9.67;;;7.53;;
13999;SDS011;7075;53.574;10.054;2023-05-10T11:53:49;10.97;;;7.80;;
13999;SDS011;7075;53.574;10.054;2023-05-10T11:56:16;11.07;;;7.50;;
13999;SDS011;7075;53.574;10.054;2023-05-10T11:58:41;7.83;;;7.03;;
13999;SDS011;7075;53.574;10.054;2023-05-10T12:01:07;9.43;;;8.00;;
13999;SDS011;7075;53.574;10.054;2023-05-10T12:03:34;8.27;;;7.47;;
13999;SDS011;7075;53.574;10.054;2023-05-10T12:06:00;8.90;;;7.73;;
13999;SDS011;7075;53.574;10.054;2023-05-10T12:08:27;9.17;;;8.00;;
13999;SDS011;7075;53.574;10.054;2023-05-10T12:11:06;8.80;;;7.97;;
13999;SDS011;7075;53.574;10.054;2023-05-10T12:13:32;9.90;;;7.43;;
13999;SDS011;7075;53.574;10.054;2023-05-10T12:16:13;10.10;;;7.47;;
13999;SDS011;7075;53.574;10.054;2023-05-10T12:18:42;9.17;;;8.27;;
13999;SDS011;7075;53.574;10.054;2023-05-10T12:21:09;10.47;;;8.50;;
13999;SDS011;7075;53.574;10.054;2023-05-10T12:23:36;8.90;;;7.73;;
13999;SDS011;7075;53.574;10.054;2023-05-10T12:26:03;9.20;;;7.73;;
13999;SDS011;7075;53.574;10.054;2023-05-10T12:28:29;8.47;;;7.70;;
13999;SDS011;7075;53.574;10.054;2023-05-10T12:30:57;9.20;;;8.30;;
13999;SDS011;7075;53.574;10.054;2023-05-10T12:33:23;13.20;;;7.77;;
13999;SDS011;7075;53.574;10.054;2023-05-10T12:35:53;9.70;;;7.80;;
13999;SDS011;7075;53.574;10.054;2023-05-10T12:40:57;13.27;;;8.50;;
13999;SDS011;7075;53.574;10.054;2023-05-10T12:43:29;13.43;;;8.10;;
13999;SDS011;7075;53.574;10.054;2023-05-10T12:45:56;8.70;;;7.83;;
13999;SDS011;7075;53.574;10.054;2023-05-10T12:48:21;9.80;;;8.80;;
13999;SDS011;7075;53.574;10.054;2023-05-10T12:50:47;8.80;;;7.87;;
13999;SDS011;7075;53.574;10.054;2023-05-10T12:53:13;10.27;;;7.23;;
13999;SDS011;7075;53.574;10.054;2023-05-10T12:55:40;10.37;;;9.00;;
13999;SDS011;7075;53.574;10.054;2023-05-10T12:58:06;9.83;;;7.67;;
13999;SDS011;7075;53.574;10.054;2023-05-10T13:00:39;8.37;;;7.57;;
13999;SDS011;7075;53.574;10.054;2023-05-10T13:03:05;7.43;;;5.50;;
13999;SDS011;7075;53.574;10.054;2023-05-10T13:05:33;6.50;;;5.47;;
13999;SDS011;7075;53.574;10.054;2023-05-10T13:07:59;8.20;;;6.87;;
13999;SDS011;7075;53.574;10.054;2023-05-10T13:10:25;8.03;;;6.30;;
13999;SDS011;7075;53.574;10.054;2023-05-10T13:12:51;7.23;;;6.13;;
13999;SDS011;7075;53.574;10.054;2023-05-10T13:15:16;6.57;;;5.87;;
13999;SDS011;7075;53.574;10.054;2023-05-10T13:17:42;5.60;;;5.03;;
13999;SDS011;7075;53.574;10.054;2023-05-10T13:20:09;6.67;;;5.43;;
13999;SDS011;7075;53.574;10.054;2023-05-10T13:22:35;8.10;;;6.00;;
13999;SDS011;7075;53.574;10.054;2023-05-10T13:25:01;7.67;;;5.30;;
13999;SDS011;7075;53.574;10.054;2023-05-10T13:27:27;5.27;;;4.77;;
13999;SDS011;7075;53.574;10.054;2023-05-10T13:29:52;5.63;;;5.13;;
13999;SDS011;7075;53.574;10.054;2023-05-10T13:32:18;7.40;;;5.57;;
13999;SDS011;7075;53.574;10.054;2023-05-10T13:34:43;5.03;;;4.53;;
13999;SDS011;7075;53.574;10.054;2023-05-10T13:37:09;5.63;;;4.40;;
13999;SDS011;7075;53.574;10.054;2023-05-10T13:39:35;4.10;;;3.70;;
13999;SDS011;7075;53.574;10.054;2023-05-10T13:42:02;4.60;;;3.27;;
13999;SDS011;7075;53.574;10.054;2023-05-10T13:44:28;5.57;;;5.07;;
13999;SDS011;7075;53.574;10.054;2023-05-10T13:46:58;5.90;;;5.30;;
13999;SDS011;7075;53.574;10.054;2023-05-10T13:49:23;5.47;;;4.97;;
13999;SDS011;7075;53.574;10.054;2023-05-10T13:51:49;5.43;;;4.93;;
13999;SDS011;7075;53.574;10.054;2023-05-10T13:54:15;6.00;;;5.50;;
13999;SDS011;7075;53.574;10.054;2023-05-10T13:56:44;5.90;;;5.27;;
13999;SDS011;7075;53.574;10.054;2023-05-10T13:59:10;8.93;;;5.63;;
13999;SDS011;7075;53.574;10.054;2023-05-10T14:01:39;5.43;;;4.40;;
13999;SDS011;7075;53.574;10.054;2023-05-10T14:04:08;7.40;;;4.37;;
13999;SDS011;7075;53.574;10.054;2023-05-10T14:06:35;5.60;;;5.10;;
13999;SDS011;7075;53.574;10.054;2023-05-10T14:09:01;5.83;;;5.23;;
13999;SDS011;7075;53.574;10.054;2023-05-10T14:11:30;4.60;;;4.20;;
13999;SDS011;7075;53.574;10.054;2023-05-10T14:13:56;4.77;;;2.97;;
13999;SDS011;7075;53.574;10.054;2023-05-10T14:16:22;2.60;;;2.40;;
13999;SDS011;7075;53.574;10.054;2023-05-10T14:18:47;4.70;;;4.20;;
13999;SDS011;7075;53.574;10.054;2023-05-10T14:21:14;5.40;;;4.30;;
13999;SDS011;7075;53.574;10.054;2023-05-10T14:23:40;6.00;;;5.00;;
13999;SDS011;7075;53.574;10.054;2023-05-10T14:26:07;5.60;;;5.10;;
13999;SDS011;7075;53.574;10.054;2023-05-10T14:28:32;5.13;;;4.63;;
13999;SDS011;7075;53.574;10.054;2023-05-10T14:30:59;4.90;;;4.50;;
13999;SDS011;7075;53.574;10.054;2023-05-10T14:33:25;4.00;;;3.60;;
13999;SDS011;7075;53.574;10.054;2023-05-10T14:35:50;6.47;;;5.10;;
13999;SDS011;7075;53.574;10.054;2023-05-10T14:38:16;4.90;;;4.37;;
13999;SDS011;7075;53.574;10.054;2023-05-10T14:40:43;5.30;;;4.63;;
13999;SDS011;7075;53.574;10.054;2023-05-10T14:43:08;5.77;;;4.43;;
13999;SDS011;7075;53.574;10.054;2023-05-10T14:45:34;5.30;;;4.40;;
13999;SDS011;7075;53.574;10.054;2023-05-10T14:48:00;3.67;;;3.30;;
13999;SDS011;7075;53.574;10.054;2023-05-10T14:50:30;4.37;;;3.87;;
13999;SDS011;7075;53.574;10.054;2023-05-10T14:52:56;5.03;;;4.50;;
13999;SDS011;7075;53.574;10.054;2023-05-10T14:55:23;6.77;;;4.87;;
13999;SDS011;7075;53.574;10.054;2023-05-10T14:57:48;9.57;;;4.53;;
13999;SDS011;7075;53.574;10.054;2023-05-10T15:00:15;3.80;;;3.50;;
13999;SDS011;7075;53.574;10.054;2023-05-10T15:02:41;3.60;;;3.30;;
13999;SDS011;7075;53.574;10.054;2023-05-10T15:05:07;5.13;;;4.63;;
13999;SDS011;7075;53.574;10.054;2023-05-10T15:07:33;4.40;;;3.70;;
13999;SDS011;7075;53.574;10.054;2023-05-10T15:09:58;4.27;;;3.87;;
13999;SDS011;7075;53.574;10.054;2023-05-10T15:12:24;5.53;;;4.53;;
13999;SDS011;7075;53.574;10.054;2023-05-10T15:14:49;4.93;;;4.53;;
13999;SDS011;7075;53.574;10.054;2023-05-10T15:17:15;5.13;;;4.43;;
13999;SDS011;7075;53.574;10.054;2023-05-10T15:19:41;5.23;;;4.73;;
13999;SDS011;7075;53.574;10.054;2023-05-10T15:22:07;6.03;;;5.17;;